createdAt,value
2019-06-15T00:00:12.753Z,97410.70
2019-06-15T00:02:42.198Z,97408.91
2019-06-15T00:05:11.736Z,97408.13
2019-06-15T00:07:41.197Z,97402.55
2019-06-15T00:10:10.963Z,97383.02
2019-06-15T00:12:40.411Z,97374.38
2019-06-15T00:15:09.915Z,97368.75
2019-06-15T00:17:39.375Z,97353.58
2019-06-15T00:20:09.885Z,97337.88
2019-06-15T00:22:39.340Z,97334.84
2019-06-15T00:25:09.133Z,97328.98
2019-06-15T00:27:38.593Z,97335.03
2019-06-15T00:30:10.742Z,97330.77
2019-06-15T00:32:40.209Z,97336.09
2019-06-15T00:35:10.217Z,97322.71
2019-06-15T00:37:39.650Z,97322.91
2019-06-15T00:40:09.922Z,97321.67
2019-06-15T00:42:39.434Z,97321.09
2019-06-15T00:45:09.142Z,97308.09
2019-06-15T00:47:38.646Z,97302.94
2019-06-15T00:50:08.723Z,97287.27
2019-06-15T00:52:38.185Z,97281.18
2019-06-15T00:55:08.465Z,97277.59
2019-06-15T00:57:38.600Z,97267.14
2019-06-15T01:00:09.138Z,97266.30
2019-06-15T01:02:38.748Z,97265.37
2019-06-15T01:05:08.413Z,97272.83
2019-06-15T01:07:37.852Z,97279.35
2019-06-15T01:10:08.827Z,97281.13
2019-06-15T01:12:38.426Z,97279.63
2019-06-15T01:15:08.475Z,97274.19
2019-06-15T01:22:37.773Z,97244.25
2019-06-15T01:25:10.632Z,97227.04
2019-06-15T01:27:40.966Z,97226.05
2019-06-15T01:30:11.776Z,97223.73
2019-06-15T01:32:41.311Z,97216.86
2019-06-15T01:35:11.489Z,97201.36
2019-06-15T01:37:40.943Z,97201.36
2019-06-15T01:40:11.100Z,97201.47
2019-06-15T01:42:40.581Z,97200.30
2019-06-15T01:45:10.180Z,97205.13
2019-06-15T01:47:39.635Z,97198.61
2019-06-15T01:50:10.222Z,97185.63
2019-06-15T01:52:39.759Z,97186.03
2019-06-15T01:55:20.418Z,97183.62
2019-06-15T01:57:40.685Z,97184.33
2019-06-15T02:00:19.037Z,97190.55
2019-06-15T02:02:48.513Z,97184.09
2019-06-15T02:05:18.984Z,97180.97
2019-06-15T02:07:48.431Z,97177.45
2019-06-15T02:10:20.009Z,97172.23
2019-06-15T02:12:49.457Z,97171.40
2019-06-15T02:15:18.971Z,97168.31
2019-06-15T02:17:48.437Z,97171.76
2019-06-15T02:20:18.281Z,97166.34
2019-06-15T02:22:47.745Z,97160.77
2019-06-15T02:25:35.352Z,97158.31
2019-06-15T02:27:55.755Z,97150.64
2019-06-15T02:30:29.592Z,97128.14
2019-06-15T02:32:59.470Z,97124.62
2019-06-15T02:35:29.132Z,97121.41
2019-06-15T02:37:58.645Z,97117.47
2019-06-15T02:40:28.165Z,97105.36
2019-06-15T02:45:26.477Z,97104.39
2019-06-15T02:47:55.992Z,97116.88
2019-06-15T02:50:25.653Z,97117.56
2019-06-15T02:52:55.151Z,97119.70
2019-06-15T02:55:24.643Z,97109.86
2019-06-15T02:57:54.295Z,97110.77
2019-06-15T03:00:34.023Z,97111.87
2019-06-15T03:03:03.672Z,97116.09
2019-06-15T03:05:33.170Z,97117.23
2019-06-15T03:08:02.700Z,97119.63
2019-06-15T03:10:32.719Z,97125.13
2019-06-15T03:13:02.999Z,97121.08
2019-06-15T03:15:32.534Z,97120.06
2019-06-15T03:18:01.980Z,97119.98
2019-06-15T03:20:31.441Z,97123.61
2019-06-15T03:23:00.897Z,97119.51
2019-06-15T03:25:30.342Z,97111.05
2019-06-15T03:27:59.900Z,97117.50
2019-06-15T03:30:29.430Z,97109.41
2019-06-15T03:32:58.930Z,97112.49
2019-06-15T03:35:28.433Z,97112.68
2019-06-15T03:37:57.888Z,97114.08
2019-06-15T03:40:27.337Z,97116.14
2019-06-15T03:42:56.794Z,97116.02
2019-06-15T03:45:26.240Z,97116.42
2019-06-15T03:47:55.769Z,97126.07
2019-06-15T03:50:25.231Z,97118.53
2019-06-15T03:52:54.743Z,97114.52
2019-06-15T03:55:24.191Z,97106.34
2019-06-15T03:57:53.645Z,97099.84
2019-06-15T04:00:33.481Z,97097.61
2019-06-15T04:03:02.959Z,97102.81
2019-06-15T04:05:32.435Z,97108.70
2019-06-15T04:08:01.874Z,97104.13
2019-06-15T04:10:31.348Z,97103.39
2019-06-15T04:13:00.792Z,97102.51
2019-06-15T04:15:30.918Z,97097.69
2019-06-15T04:18:00.365Z,97095.72
2019-06-15T04:20:30.651Z,97093.98
2019-06-15T04:23:00.113Z,97096.20
2019-06-15T04:25:29.561Z,97092.92
2019-06-15T04:27:59.013Z,97103.13
2019-06-15T04:30:28.457Z,97102.82
2019-06-15T04:32:58.183Z,97106.16
2019-06-15T04:35:27.716Z,97099.17
2019-06-15T04:37:57.157Z,97090.95
2019-06-15T04:40:26.609Z,97090.47
2019-06-15T04:42:56.068Z,97097.82
2019-06-15T04:45:25.524Z,97095.49
2019-06-15T04:47:54.981Z,97093.81
2019-06-15T04:50:24.431Z,97089.00
2019-06-15T04:52:53.867Z,97089.91
2019-06-15T04:55:23.596Z,97093.38
2019-06-15T04:57:53.063Z,97089.01
2019-06-15T05:00:22.874Z,97086.86
2019-06-15T05:02:52.347Z,97091.06
2019-06-15T05:05:21.813Z,97100.10
2019-06-15T05:07:51.272Z,97093.54
2019-06-15T05:10:20.787Z,97095.89
2019-06-15T05:12:50.234Z,97097.53
2019-06-15T05:15:19.834Z,97099.61
2019-06-15T05:17:49.289Z,97099.33
2019-06-15T05:20:18.817Z,97103.72
2019-06-15T05:22:48.275Z,97112.52
2019-06-15T05:25:17.712Z,97111.11
2019-06-15T05:27:47.169Z,97108.59
2019-06-15T05:30:16.752Z,97103.24
2019-06-15T05:32:46.237Z,97112.63
2019-06-15T05:35:15.820Z,97115.01
2019-06-15T05:37:45.284Z,97116.09
2019-06-15T05:40:14.876Z,97120.41
2019-06-15T05:42:44.328Z,97120.41
2019-06-15T05:45:15.411Z,97123.03
2019-06-15T05:47:44.927Z,97126.11
2019-06-15T05:50:14.514Z,97129.91
2019-06-15T05:52:44.356Z,97131.36
2019-06-15T05:55:15.803Z,97137.08
2019-06-15T05:57:45.266Z,97134.55
2019-06-15T06:00:15.465Z,97136.48
2019-06-15T06:02:44.966Z,97145.28
2019-06-15T06:05:14.854Z,97156.47
2019-06-15T06:07:44.323Z,97166.74
2019-06-15T06:10:14.307Z,97179.77
2019-06-15T06:12:43.748Z,97186.08
2019-06-15T06:15:13.794Z,97183.59
2019-06-15T06:17:43.266Z,97186.39
2019-06-15T06:20:13.339Z,97187.73
2019-06-15T06:22:42.786Z,97191.05
2019-06-15T06:25:12.977Z,97188.23
2019-06-15T06:27:42.437Z,97186.70
2019-06-15T06:30:12.790Z,97191.93
2019-06-15T06:32:42.252Z,97193.05
2019-06-15T06:35:11.947Z,97193.38
2019-06-15T06:37:41.390Z,97194.47
2019-06-15T06:40:12.391Z,97199.39
2019-06-15T06:42:41.848Z,97197.50
2019-06-15T06:45:12.111Z,97202.16
2019-06-15T06:47:42.196Z,97194.48
2019-06-15T06:50:12.624Z,97197.67
2019-06-15T06:52:42.079Z,97204.41
2019-06-15T06:55:12.739Z,97209.40
2019-06-15T06:57:52.239Z,97219.79
2019-06-15T07:00:16.279Z,97221.31
2019-06-15T07:02:45.736Z,97234.69
2019-06-15T07:05:15.262Z,97238.70
2019-06-15T07:07:44.749Z,97241.53
2019-06-15T07:10:16.111Z,97244.29
2019-06-15T07:12:45.707Z,97249.59
2019-06-15T07:15:15.518Z,97263.43
2019-06-15T07:17:44.973Z,97277.61
2019-06-15T07:20:15.552Z,97294.70
2019-06-15T07:22:45.012Z,97301.64
2019-06-15T07:25:14.809Z,97301.64
2019-06-15T07:27:44.266Z,97315.74
2019-06-15T07:30:13.694Z,97320.86
2019-06-15T07:32:43.150Z,97322.59
2019-06-15T07:35:12.727Z,97315.10
2019-06-15T07:37:42.190Z,97326.31
2019-06-15T07:40:11.966Z,97326.16
2019-06-15T07:42:41.504Z,97320.86
2019-06-15T07:45:11.581Z,97322.30
2019-06-15T07:47:41.049Z,97312.30
2019-06-15T07:50:10.943Z,97304.22
2019-06-15T07:52:40.384Z,97307.45
2019-06-15T07:55:10.282Z,97297.14
2019-06-15T07:57:39.901Z,97310.11
2019-06-15T08:00:10.082Z,97315.16
2019-06-15T08:02:39.535Z,97312.97
2019-06-15T08:05:09.140Z,97321.85
2019-06-15T08:07:38.671Z,97326.86
2019-06-15T08:10:08.728Z,97335.70
2019-06-15T08:12:38.224Z,97341.66
2019-06-15T08:15:09.865Z,97354.09
2019-06-15T08:17:39.432Z,97355.38
2019-06-15T08:20:12.924Z,97363.88
2019-06-15T08:22:42.369Z,97373.66
2019-06-15T08:25:12.221Z,97377.45
2019-06-15T08:27:41.677Z,97384.25
2019-06-15T08:30:13.389Z,97378.91
2019-06-15T08:32:42.830Z,97384.82
2019-06-15T08:35:12.456Z,97381.95
2019-06-15T08:37:41.901Z,97386.07
2019-06-15T08:40:11.978Z,97392.38
2019-06-15T08:42:41.429Z,97397.88
2019-06-15T08:45:10.997Z,97394.75
2019-06-15T08:47:40.453Z,97398.19
2019-06-15T08:50:10.251Z,97398.70
2019-06-15T08:52:39.719Z,97410.40
2019-06-15T08:55:09.232Z,97420.81
2019-06-15T08:57:40.547Z,97424.05
2019-06-15T09:00:12.288Z,97437.77
2019-06-15T09:02:41.796Z,97441.22
2019-06-15T09:05:11.404Z,97455.11
2019-06-15T09:07:40.843Z,97453.09
2019-06-15T09:10:10.822Z,97450.34
2019-06-15T09:12:40.283Z,97449.28
2019-06-15T09:15:10.834Z,97469.97
2019-06-15T09:17:40.277Z,97462.52
2019-06-15T09:20:12.136Z,97462.78
2019-06-15T09:22:41.577Z,97466.55
2019-06-15T09:25:11.625Z,97474.07
2019-06-15T09:27:41.094Z,97464.98
2019-06-15T09:30:10.661Z,97480.27
2019-06-15T09:32:40.128Z,97473.73
2019-06-15T09:35:09.644Z,97489.48
2019-06-15T09:37:39.099Z,97502.70
2019-06-15T09:40:09.162Z,97499.27
2019-06-15T09:42:38.676Z,97513.83
2019-06-15T09:45:08.769Z,97503.54
2019-06-15T09:47:38.242Z,97509.84
2019-06-15T09:50:08.123Z,97517.98
2019-06-15T09:52:37.561Z,97531.23
2019-06-15T09:55:08.157Z,97526.16
2019-06-15T09:57:37.593Z,97527.30
2019-06-15T10:00:08.838Z,97521.09
2019-06-15T10:02:39.134Z,97532.09
2019-06-15T10:05:09.593Z,97515.53
2019-06-15T10:07:39.061Z,97509.61
2019-06-15T10:10:09.347Z,97508.31
2019-06-15T10:12:38.803Z,97515.63
2019-06-15T10:15:10.307Z,97527.91
2019-06-15T10:17:39.769Z,97534.28
2019-06-15T10:20:10.014Z,97540.37
2019-06-15T10:22:39.460Z,97541.20
2019-06-15T10:25:09.557Z,97545.73
2019-06-15T10:27:38.997Z,97543.94
2019-06-15T10:30:10.221Z,97535.89
2019-06-15T10:32:39.649Z,97534.68
2019-06-15T10:35:09.450Z,97537.55
2019-06-15T10:37:38.894Z,97541.28
2019-06-15T10:40:09.550Z,97553.59
2019-06-15T10:42:39.015Z,97540.91
2019-06-15T10:45:09.364Z,97547.83
2019-06-15T10:47:38.875Z,97541.46
2019-06-15T10:50:09.509Z,97559.31
2019-06-15T10:52:39.029Z,97554.86
2019-06-15T10:55:08.627Z,97567.91
2019-06-15T10:57:38.158Z,97572.06
2019-06-15T11:00:11.515Z,97576.16
2019-06-15T11:02:41.168Z,97572.07
2019-06-15T11:05:12.814Z,97580.23
2019-06-15T11:07:42.313Z,97579.78
2019-06-15T11:10:15.417Z,97586.91
2019-06-15T11:12:46.760Z,97587.22
2019-06-15T11:15:16.292Z,97609.11
2019-06-15T11:17:45.830Z,97616.05
2019-06-15T11:20:15.766Z,97612.34
2019-06-15T11:22:45.249Z,97625.13
2019-06-15T11:25:14.742Z,97621.48
2019-06-15T11:27:44.261Z,97633.28
2019-06-15T11:30:14.686Z,97644.02
2019-06-15T11:32:44.399Z,97647.63
2019-06-15T11:35:14.044Z,97658.91
2019-06-15T11:37:43.635Z,97647.56
2019-06-15T11:40:13.390Z,97643.27
2019-06-15T11:42:42.966Z,97647.98
2019-06-15T11:45:12.554Z,97649.79
2019-06-15T11:47:42.086Z,97649.39
2019-06-15T11:50:12.149Z,97644.52
2019-06-15T11:52:41.728Z,97639.64
2019-06-15T11:55:11.480Z,97633.45
2019-06-15T11:57:41.113Z,97624.70
2019-06-15T12:00:11.662Z,97640.70
2019-06-15T12:02:41.236Z,97636.27
2019-06-15T12:05:10.913Z,97636.91
2019-06-15T12:07:40.590Z,97638.91
2019-06-15T12:10:10.292Z,97635.05
2019-06-15T12:12:39.783Z,97641.21
2019-06-15T12:15:09.843Z,97632.69
2019-06-15T12:17:39.347Z,97635.69
2019-06-15T12:20:10.039Z,97656.39
2019-06-15T12:22:39.588Z,97640.30
2019-06-15T12:25:09.849Z,97639.28
2019-06-15T12:27:39.291Z,97649.64
2019-06-15T12:30:11.452Z,97641.05
2019-06-15T12:32:40.922Z,97654.88
2019-06-15T12:35:11.004Z,97656.03
2019-06-15T12:37:40.445Z,97667.50
2019-06-15T12:40:11.446Z,97665.84
2019-06-15T12:42:40.887Z,97672.41
2019-06-15T12:45:10.431Z,97677.37
2019-06-15T12:47:39.874Z,97671.83
2019-06-15T12:50:09.654Z,97688.23
2019-06-15T12:52:39.111Z,97700.56
2019-06-15T12:55:08.614Z,97693.52
2019-06-15T12:57:38.064Z,97696.17
2019-06-15T13:00:09.644Z,97694.30
2019-06-15T13:02:39.066Z,97708.54
2019-06-15T13:05:09.936Z,97703.64
2019-06-15T13:07:39.387Z,97703.84
2019-06-15T13:10:09.059Z,97706.37
2019-06-15T13:12:38.513Z,97705.06
2019-06-15T13:15:09.092Z,97716.41
2019-06-15T13:17:38.566Z,97713.88
2019-06-15T13:20:08.353Z,97712.77
2019-06-15T13:22:37.799Z,97710.28
2019-06-15T13:25:09.147Z,97711.17
2019-06-15T13:27:38.618Z,97715.11
2019-06-15T13:30:09.167Z,97709.36
2019-06-15T13:32:38.678Z,97710.53
2019-06-15T13:35:08.702Z,97713.89
2019-06-15T13:37:41.993Z,97726.14
2019-06-15T13:40:09.496Z,97726.77
2019-06-15T13:42:38.981Z,97733.73
2019-06-15T13:45:09.934Z,97736.09
2019-06-15T13:47:39.465Z,97733.49
2019-06-15T13:50:10.008Z,97733.06
2019-06-15T13:52:39.957Z,97737.34
2019-06-15T13:55:10.184Z,97739.63
2019-06-15T13:57:39.752Z,97740.20
2019-06-15T14:00:09.646Z,97751.05
2019-06-15T14:02:39.216Z,97747.34
2019-06-15T14:05:10.378Z,97748.32
2019-06-15T14:07:39.847Z,97749.93
2019-06-15T14:10:09.926Z,97745.29
2019-06-15T14:12:39.413Z,97739.14
2019-06-15T14:15:09.779Z,97740.06
2019-06-15T14:17:40.186Z,97740.37
2019-06-15T14:20:10.734Z,97739.81
2019-06-15T14:22:40.242Z,97748.97
2019-06-15T14:25:10.485Z,97747.97
2019-06-15T14:27:39.957Z,97745.02
2019-06-15T14:30:10.347Z,97747.28
2019-06-15T14:32:39.849Z,97749.19
2019-06-15T14:35:10.420Z,97747.28
2019-06-15T14:37:39.880Z,97748.03
2019-06-15T14:40:09.825Z,97752.08
2019-06-15T14:42:39.278Z,97752.06
2019-06-15T14:45:09.854Z,97753.80
2019-06-15T14:47:39.302Z,97747.73
2019-06-15T14:50:09.689Z,97751.95
2019-06-15T14:52:39.131Z,97752.16
2019-06-15T14:55:09.104Z,97749.81
2019-06-15T14:57:38.553Z,97749.58
2019-06-15T15:00:09.289Z,97752.70
2019-06-15T15:02:38.764Z,97752.48
2019-06-15T15:05:08.588Z,97748.81
2019-06-15T15:07:38.044Z,97752.95
2019-06-15T15:10:09.138Z,97755.94
2019-06-15T15:12:41.644Z,97753.83
2019-06-15T15:15:09.995Z,97759.30
2019-06-15T15:17:39.443Z,97758.67
2019-06-15T15:20:09.744Z,97750.11
2019-06-15T15:22:39.351Z,97752.94
2019-06-15T15:25:09.106Z,97747.09
2019-06-15T15:27:38.571Z,97749.34
2019-06-15T15:30:11.812Z,97754.58
2019-06-15T15:32:41.282Z,97762.09
2019-06-15T15:35:10.813Z,97752.37
2019-06-15T15:37:40.440Z,97749.97
2019-06-15T15:40:10.052Z,97755.17
2019-06-15T15:42:39.502Z,97758.81
2019-06-15T15:45:09.593Z,97759.92
2019-06-15T15:47:39.057Z,97767.11
2019-06-15T15:50:08.826Z,97757.94
2019-06-15T15:52:38.272Z,97761.77
2019-06-15T15:55:08.173Z,97759.03
2019-06-15T15:57:37.680Z,97760.87
2019-06-15T16:00:08.438Z,97760.87
2019-06-15T16:02:47.512Z,97767.88
2019-06-15T16:05:10.831Z,97770.16
2019-06-15T16:07:40.287Z,97766.02
2019-06-15T16:10:09.967Z,97759.55
2019-06-15T16:12:39.437Z,97767.26
2019-06-15T16:15:09.316Z,97773.90
2019-06-15T16:17:38.773Z,97768.73
2019-06-15T16:20:17.342Z,97772.27
2019-06-15T16:22:48.026Z,97768.27
2019-06-15T16:25:18.036Z,97760.50
2019-06-15T16:27:47.500Z,97773.27
2019-06-15T16:30:48.309Z,97769.01
2019-06-15T16:33:04.163Z,97781.44
2019-06-15T16:35:33.220Z,97772.25
2019-06-15T16:38:02.688Z,97774.95
2019-06-15T16:40:40.051Z,97779.62
2019-06-15T16:43:09.631Z,97778.23
2019-06-15T16:45:39.076Z,97773.69
2019-06-15T16:48:08.610Z,97774.55
2019-06-15T16:50:38.048Z,97786.61
2019-06-15T16:53:07.487Z,97780.95
2019-06-15T16:55:37.719Z,97773.77
2019-06-15T16:58:07.857Z,97782.38
2019-06-15T17:00:37.357Z,97784.55
2019-06-15T17:03:19.945Z,97782.34
2019-06-15T17:05:38.089Z,97778.38
2019-06-15T17:08:07.613Z,97785.80
2019-06-15T17:10:41.653Z,97787.60
2019-06-15T17:13:11.333Z,97784.70
2019-06-15T17:15:41.064Z,97792.28
2019-06-15T17:18:11.180Z,97786.40
2019-06-15T17:20:49.185Z,97796.09
2019-06-15T17:23:18.958Z,97797.92
2019-06-15T17:25:48.757Z,97790.20
2019-06-15T17:28:18.235Z,97785.09
2019-06-15T17:30:47.685Z,97792.39
2019-06-15T17:33:17.156Z,97787.10
2019-06-15T17:35:58.430Z,97784.33
2019-06-15T17:38:17.771Z,97790.28
2019-06-15T17:40:47.304Z,97790.83
2019-06-15T17:43:16.754Z,97784.90
2019-06-15T17:45:46.855Z,97781.22
2019-06-15T17:48:17.322Z,97783.70
2019-06-15T17:50:47.869Z,97788.88
2019-06-15T17:53:17.495Z,97780.47
2019-06-15T17:55:46.998Z,97781.75
2019-06-15T17:58:17.143Z,97776.22
2019-06-15T18:00:48.296Z,97772.81
2019-06-15T18:03:17.817Z,97774.09
2019-06-15T18:05:48.395Z,97776.91
2019-06-15T18:08:18.038Z,97777.71
2019-06-15T18:10:48.135Z,97785.71
2019-06-15T18:13:17.677Z,97786.91
2019-06-15T18:15:47.883Z,97787.87
2019-06-15T18:18:17.703Z,97796.70
2019-06-15T18:20:47.330Z,97797.07
2019-06-15T18:23:17.633Z,97797.08
2019-06-15T18:25:47.419Z,97794.09
2019-06-15T18:28:17.940Z,97793.77
2019-06-15T18:30:48.148Z,97796.50
2019-06-15T18:33:19.179Z,97804.21
2019-06-15T18:35:48.717Z,97807.03
2019-06-15T18:38:18.200Z,97811.31
2019-06-15T18:40:47.655Z,97807.25
2019-06-15T18:43:17.143Z,97799.20
2019-06-15T18:45:47.390Z,97802.00
2019-06-15T18:48:17.108Z,97803.52
2019-06-15T18:50:47.745Z,97797.67
2019-06-15T18:53:17.178Z,97800.27
2019-06-15T18:55:47.467Z,97804.80
2019-06-15T18:58:17.564Z,97801.19
2019-06-15T19:00:47.309Z,97802.65
2019-06-15T19:03:17.098Z,97807.24
2019-06-15T19:05:47.339Z,97810.42
2019-06-15T19:08:17.452Z,97803.60
2019-06-15T19:10:47.135Z,97805.91
2019-06-15T19:13:16.587Z,97801.30
2019-06-15T19:15:46.968Z,97805.27
2019-06-15T19:18:17.679Z,97814.59
2019-06-15T19:20:47.402Z,97819.19
2019-06-15T19:23:16.882Z,97820.70
2019-06-15T19:25:46.976Z,97823.77
2019-06-15T19:28:16.857Z,97831.83
2019-06-15T19:30:47.084Z,97833.98
2019-06-15T19:33:16.794Z,97837.45
2019-06-15T19:35:46.630Z,97844.00
2019-06-15T19:38:16.498Z,97851.17
2019-06-15T19:40:46.303Z,97848.00
2019-06-15T19:43:16.392Z,97857.59
2019-06-15T19:45:46.768Z,97859.83
2019-06-15T19:48:17.098Z,97862.95
2019-06-15T19:50:46.827Z,97869.13
2019-06-15T19:53:17.219Z,97868.89
2019-06-15T19:55:47.049Z,97870.38
2019-06-15T19:58:16.753Z,97877.94
2019-06-15T20:00:46.862Z,97878.14
2019-06-15T20:03:16.831Z,97879.70
2019-06-15T20:05:46.427Z,97880.05
2019-06-15T20:08:17.688Z,97880.98
2019-06-15T20:10:47.497Z,97876.32
2019-06-15T20:13:16.988Z,97879.66
2019-06-15T20:15:47.056Z,97876.28
2019-06-15T20:18:17.747Z,97884.66
2019-06-15T20:20:47.298Z,97878.80
2019-06-15T20:23:16.738Z,97878.73
2019-06-15T20:25:47.080Z,97884.79
2019-06-15T20:28:16.743Z,97889.04
2019-06-15T20:30:47.384Z,97891.61
2019-06-15T20:33:16.957Z,97892.54
2019-06-15T20:35:47.477Z,97895.30
2019-06-15T20:38:17.082Z,97893.23
2019-06-15T20:40:47.775Z,97894.30
2019-06-15T20:43:17.488Z,97899.43
2019-06-15T20:45:48.053Z,97899.71
2019-06-15T20:48:17.515Z,97904.97
2019-06-15T20:50:47.336Z,97904.37
2019-06-15T20:53:17.213Z,97917.38
2019-06-15T20:55:46.903Z,97920.11
2019-06-15T20:58:17.231Z,97927.66
2019-06-15T21:00:47.701Z,97923.83
2019-06-15T21:03:17.349Z,97932.58
2019-06-15T21:05:47.656Z,97933.59
2019-06-15T21:08:17.433Z,97931.47
2019-06-15T21:10:46.874Z,97927.23
2019-06-15T21:13:17.178Z,97930.56
2019-06-15T21:15:47.941Z,97930.31
2019-06-15T21:18:17.428Z,97932.22
2019-06-15T21:20:47.261Z,97944.30
2019-06-15T21:23:17.193Z,97943.72
2019-06-15T21:25:47.000Z,97946.84
2019-06-15T21:28:17.067Z,97946.02
2019-06-15T21:30:47.444Z,97951.34
2019-06-15T21:33:16.987Z,97951.01
2019-06-15T21:35:52.305Z,97947.69
2019-06-15T21:38:17.635Z,97963.61
2019-06-15T21:40:47.673Z,97968.73
2019-06-15T21:43:17.254Z,97971.13
2019-06-15T21:45:46.714Z,97966.47
2019-06-15T21:48:16.175Z,97970.12
2019-06-15T21:50:47.323Z,97974.09
2019-06-15T21:53:16.958Z,97973.72
2019-06-15T21:55:47.155Z,97979.98
2019-06-15T21:58:16.995Z,97978.92
2019-06-15T22:01:21.159Z,97972.05
2019-06-15T22:03:50.655Z,97967.65
2019-06-15T22:06:20.121Z,97990.14
2019-06-15T22:08:49.580Z,97990.19
2019-06-15T22:11:19.026Z,97982.94
2019-06-15T22:13:48.465Z,97984.06
2019-06-15T22:16:17.938Z,97984.18
2019-06-15T22:18:47.696Z,97981.42
2019-06-15T22:21:17.181Z,97984.29
2019-06-15T22:23:47.303Z,97990.12
2019-06-15T22:26:17.301Z,97994.56
2019-06-15T22:28:47.188Z,98002.67
2019-06-15T22:31:17.210Z,98010.25
2019-06-15T22:33:47.394Z,98012.22
2019-06-15T22:36:24.383Z,98017.41
2019-06-15T22:38:48.077Z,98020.78
2019-06-15T22:41:17.538Z,98019.48
2019-06-15T22:43:46.986Z,98012.36
2019-06-15T22:46:16.716Z,98021.61
2019-06-15T22:48:47.033Z,98026.89
2019-06-15T22:51:17.120Z,98028.77
2019-06-15T22:53:47.322Z,98034.48
2019-06-15T22:56:17.358Z,98047.62
2019-06-15T22:58:46.938Z,98049.57
2019-06-15T23:01:17.014Z,98047.43
2019-06-15T23:03:46.855Z,98048.25
2019-06-15T23:06:16.451Z,98034.38
2019-06-15T23:08:47.092Z,98028.13
2019-06-15T23:11:17.410Z,98027.30
2019-06-15T23:13:47.150Z,98028.37
2019-06-15T23:16:16.897Z,98025.59
2019-06-15T23:18:46.886Z,98026.36
2019-06-15T23:21:17.283Z,98028.92
2019-06-15T23:23:47.295Z,98035.63
2019-06-15T23:26:16.868Z,98046.25
2019-06-15T23:28:46.800Z,98054.77
2019-06-15T23:31:16.869Z,98061.64
2019-06-15T23:33:46.835Z,98073.37
2019-06-15T23:36:18.114Z,98069.61
2019-06-15T23:38:47.570Z,98070.86
2019-06-15T23:41:17.015Z,98072.34
2019-06-15T23:43:46.550Z,98074.64
2019-06-15T23:46:16.131Z,98067.12
2019-06-15T23:48:47.026Z,98058.89
2019-06-15T23:51:17.125Z,98054.92
2019-06-15T23:53:46.745Z,98060.48
2019-06-15T23:56:16.204Z,98067.38
2019-06-15T23:58:46.351Z,98068.50
